Time;durP1;ratioP1;P1;durP2;ratioP2;P2;SDS_P1;SDS_P2;PMS_P1;PMS_P2;Temp;Humidity;BMP_temperature;BMP_pressure;BME280_temperature;BME280_humidity;BME280_pressure;Samples;Min_cycle;Max_cycle;Signal;HPM_P1;HPM_P2
2022/02/24 00:02:06;;;;;;;3.63;1.83;;;;;;;-145.69;100.00;73102.09;5096011;28;20347;-77
2022/02/24 00:04:33;;;;;;;11.03;2.60;;;;;;;-145.69;100.00;73066.25;5088722;28;20194;-76
2022/02/24 00:07:00;;;;;;;4.00;1.70;;;;;;;-145.69;100.00;73074.22;5074693;28;20199;-77
2022/02/24 00:09:47;;;;;;;2.63;2.03;;;;;;;-145.69;100.00;73058.31;5013445;28;20204;-78
2022/02/24 00:12:13;;;;;;;4.00;2.33;;;;;;;-145.69;100.00;73044.38;5065013;28;20276;-77
2022/02/24 00:14:41;;;;;;;4.80;2.20;;;;;;;-145.69;100.00;73036.41;5075695;28;20209;-77
2022/02/24 00:17:08;;;;;;;6.87;2.87;;;;;;;-145.69;100.00;72998.59;5059750;28;20204;-77
2022/02/24 00:19:34;;;;;;;2.13;1.77;;;;;;;-145.69;100.00;73042.38;5055269;28;20204;-77
2022/02/24 00:22:01;;;;;;;3.80;2.03;;;;;;;-145.69;100.00;73054.31;5055275;28;20235;-77
2022/02/24 00:24:27;;;;;;;8.93;2.53;;;;;;;-145.69;100.00;73010.53;5055623;28;20203;-77
2022/02/24 00:26:54;;;;;;;6.33;2.10;;;;;;;-145.69;100.00;73008.53;5055573;28;20207;-77
2022/02/24 00:29:20;;;;;;;3.50;1.80;;;;;;;-145.69;100.00;73000.56;5055417;28;20598;-77
2022/02/24 00:31:48;;;;;;;6.93;2.40;;;;;;;-145.69;100.00;73018.50;5055364;28;20226;-77
2022/02/24 00:34:16;;;;;;;5.57;2.10;;;;;;;-145.69;100.00;73020.47;5070238;28;20205;-77
2022/02/24 00:36:43;;;;;;;4.17;2.23;;;;;;;-145.69;100.00;73010.53;5095414;28;20236;-77
2022/02/24 00:39:09;;;;;;;3.23;1.73;;;;;;;-145.69;100.00;73038.41;5095651;28;20198;-77
2022/02/24 00:41:36;;;;;;;2.47;1.77;;;;;;;-145.69;100.00;73054.31;5074490;28;20255;-78
2022/02/24 00:44:03;;;;;;;3.13;1.87;;;;;;;-145.69;100.00;73030.44;5075181;28;20225;-77
2022/02/24 00:46:30;;;;;;;3.37;1.90;;;;;;;-145.69;100.00;73022.47;5074972;28;20221;-77
2022/02/24 00:48:58;;;;;;;4.27;1.93;;;;;;;-145.69;100.00;73018.50;5074781;28;20210;-77
2022/02/24 00:51:24;;;;;;;7.70;2.00;;;;;;;-145.69;100.00;73042.38;5074880;28;20727;-77
2022/02/24 00:53:50;;;;;;;4.20;2.33;;;;;;;-145.69;100.00;73014.50;5075081;28;20201;-78
2022/02/24 00:56:17;;;;;;;7.37;2.60;;;;;;;-145.69;100.00;73010.53;5074956;28;20199;-77
2022/02/24 00:58:43;;;;;;;3.07;1.70;;;;;;;-145.69;100.00;73000.56;5090098;28;20228;-78
2022/02/24 01:01:10;;;;;;;4.60;1.90;;;;;;;-145.69;100.00;73020.47;5094552;28;20226;-78
2022/02/24 01:03:36;;;;;;;7.10;1.80;;;;;;;-145.69;100.00;73054.31;5094272;28;20209;-77
2022/02/24 01:06:04;;;;;;;4.30;1.93;;;;;;;-145.69;100.00;73018.50;5094499;28;20202;-77
2022/02/24 01:08:30;;;;;;;2.43;1.83;;;;;;;-145.69;100.00;73004.56;5094796;28;20229;-77
2022/02/24 01:10:57;;;;;;;12.97;2.30;;;;;;;-145.69;100.00;72990.63;5095136;28;20228;-77
2022/02/24 01:13:23;;;;;;;4.30;2.70;;;;;;;-145.69;100.00;72982.66;5094930;28;20206;-77
2022/02/24 01:15:50;;;;;;;9.10;2.80;;;;;;;-145.69;100.00;72938.88;5094974;28;20656;-77
2022/02/24 01:18:16;;;;;;;2.60;2.10;;;;;;;-145.69;100.00;72972.72;5094494;28;20194;-77
2022/02/24 01:20:43;;;;;;;6.53;2.70;;;;;;;-145.69;100.00;72962.75;5091964;28;20190;-76
2022/02/24 01:23:11;;;;;;;7.07;1.90;;;;;;;-145.69;100.00;72986.63;5074535;28;20206;-77
2022/02/24 01:25:38;;;;;;;4.80;2.00;;;;;;;-145.69;100.00;72994.59;5074431;28;20198;-77
2022/02/24 01:28:04;;;;;;;5.23;2.40;;;;;;;-145.69;100.00;73004.56;5074328;28;20207;-77
2022/02/24 01:30:31;;;;;;;5.63;2.00;;;;;;;-145.69;100.00;72978.69;5073542;28;20199;-77
2022/02/24 01:32:58;;;;;;;4.77;2.53;;;;;;;-145.69;100.00;72970.72;5074090;28;20608;-77
2022/02/24 01:35:24;;;;;;;4.93;2.50;;;;;;;-145.69;100.00;72990.63;5073069;28;20431;-77
2022/02/24 01:37:51;;;;;;;3.80;2.63;;;;;;;-145.69;100.00;72956.78;5074081;28;20202;-77
2022/02/24 01:40:19;;;;;;;3.73;1.83;;;;;;;-145.69;100.00;72942.84;5074121;28;20202;-77
2022/02/24 01:42:46;;;;;;;3.53;1.63;;;;;;;-145.69;100.00;72966.72;5073967;28;20230;-77
2022/02/24 01:45:14;;;;;;;7.27;2.57;;;;;;;-145.69;100.00;72926.91;5072603;28;20202;-78
2022/02/24 01:47:41;;;;;;;3.27;1.90;;;;;;;-145.69;100.00;72962.75;5086956;28;20276;-78
2022/02/24 01:50:11;;;;;;;7.80;3.00;;;;;;;-145.69;100.00;72911.00;5093574;28;20684;-78
2022/02/24 01:52:37;;;;;;;4.23;2.47;;;;;;;-145.69;100.00;72930.91;5094020;28;20209;-78
2022/02/24 01:55:04;;;;;;;9.70;2.97;;;;;;;-145.69;100.00;72930.91;5093994;28;20197;-78
2022/02/24 01:57:32;;;;;;;6.60;2.37;;;;;;;-145.69;100.00;72924.94;5093770;28;20201;-77
2022/02/24 01:59:59;;;;;;;3.37;2.07;;;;;;;-145.69;100.00;72916.97;5091035;28;20225;-78
2022/02/24 02:02:26;;;;;;;6.60;2.53;;;;;;;-145.69;100.00;72907.00;5092953;28;20234;-78
2022/02/24 02:04:53;;;;;;;4.27;2.63;;;;;;;-145.69;100.00;72891.09;5094271;28;20220;-77
2022/02/24 02:07:21;;;;;;;5.63;2.93;;;;;;;-145.69;100.00;72885.13;5093540;28;20668;-78
2022/02/24 02:09:48;;;;;;;6.33;2.90;;;;;;;-145.69;100.00;72899.06;5091831;28;20197;-78
2022/02/24 02:12:18;;;;;;;9.23;3.45;;;;;;;-145.69;100.00;72905.03;5072330;28;20430;-78
2022/02/24 02:14:46;;;;;;;7.03;2.57;;;;;;;-145.69;100.00;72916.97;5073635;28;20256;-78
2022/02/24 02:17:13;;;;;;;11.57;3.40;;;;;;;-145.69;100.00;72899.06;5073652;28;20198;-79
2022/02/24 02:19:39;;;;;;;4.77;2.57;;;;;;;-145.69;100.00;72903.03;5073377;28;20213;-78
2022/02/24 02:22:07;;;;;;;7.57;2.33;;;;;;;-145.69;100.00;72893.09;5074389;28;20226;-78
2022/02/24 02:24:34;;;;;;;8.17;2.83;;;;;;;-145.69;100.00;72911.00;5073044;28;20225;-78
2022/02/24 02:27:00;;;;;;;9.37;3.33;;;;;;;-145.69;100.00;72911.00;5072955;28;20202;-78
2022/02/24 02:29:27;;;;;;;8.20;3.50;;;;;;;-145.69;100.00;72914.97;5082179;28;20205;-78
2022/02/24 02:31:53;;;;;;;7.63;3.33;;;;;;;-145.69;100.00;72914.97;5093186;28;20202;-77
2022/02/24 02:34:20;;;;;;;6.23;3.57;;;;;;;-145.69;100.00;72909.00;5093044;28;20206;-78
2022/02/24 02:36:48;;;;;;;12.47;4.07;;;;;;;-145.69;100.00;72907.00;5093413;28;20206;-78
2022/02/24 02:39:17;;;;;;;9.00;3.37;;;;;;;-145.69;100.00;72918.97;5092828;28;20289;-77
2022/02/24 02:41:45;;;;;;;6.30;2.67;;;;;;;-145.69;100.00;72926.91;5078751;28;20219;-78
2022/02/24 02:44:13;;;;;;;10.27;3.93;;;;;;;-145.69;100.00;72920.94;5072911;28;20251;-77
2022/02/24 02:46:40;;;;;;;14.03;4.20;;;;;;;-145.69;100.00;72903.03;5073323;28;20207;-78
2022/02/24 02:49:07;;;;;;;17.57;4.30;;;;;;;-145.69;100.00;72907.00;5072673;28;20206;-78
2022/02/24 02:51:33;;;;;;;14.60;5.97;;;;;;;-145.69;100.00;72879.16;5073020;28;20202;-78
2022/02/24 02:53:59;;;;;;;11.30;4.60;;;;;;;-145.69;100.00;72875.16;5090292;28;20206;-77
2022/02/24 02:56:27;;;;;;;11.87;4.03;;;;;;;-145.69;100.00;72911.00;5093215;28;20538;-78
2022/02/24 02:58:54;;;;;;;13.43;5.70;;;;;;;-145.69;100.00;72871.19;5093067;28;20225;-78
2022/02/24 03:01:20;;;;;;;15.37;6.10;;;;;;;-145.69;100.00;72863.22;5082981;28;20759;-78
2022/02/24 03:03:47;;;;;;;15.07;5.83;;;;;;;-145.69;100.00;72883.13;5072883;28;20195;-77
2022/02/24 03:06:13;;;;;;;20.03;6.33;;;;;;;-145.69;100.00;72865.22;5072903;28;20199;-78
2022/02/24 03:08:40;;;;;;;18.73;6.70;;;;;;;-145.69;100.00;72841.31;5072575;28;20234;-78
2022/02/24 03:11:06;;;;;;;17.57;6.97;;;;;;;-145.69;100.00;72841.31;5072979;28;20195;-78
2022/02/24 03:13:34;;;;;;;18.50;6.10;;;;;;;-145.69;100.00;72847.28;5072733;28;20661;-78
2022/02/24 03:16:01;;;;;;;24.00;7.50;;;;;;;-145.69;100.00;72807.47;5076215;28;20615;-78
2022/02/24 03:18:27;;;;;;;20.53;6.97;;;;;;;-145.69;100.00;72821.41;5092853;28;20202;-78
2022/02/24 03:20:54;;;;;;;18.73;6.53;;;;;;;-145.69;100.00;72831.38;5092946;28;20197;-78
2022/02/24 03:23:20;;;;;;;15.63;6.43;;;;;;;-145.69;100.00;72837.34;5092732;28;20229;-77
2022/02/24 03:25:47;;;;;;;16.70;6.97;;;;;;;-145.69;100.00;72839.34;5092702;28;20653;-78
2022/02/24 03:28:13;;;;;;;18.77;5.97;;;;;;;-145.69;100.00;72839.34;5092772;28;20210;-78
2022/02/24 03:30:41;;;;;;;15.87;6.20;;;;;;;-145.69;100.00;72839.34;5092686;28;20206;-78
2022/02/24 03:33:11;;;;;;;15.40;5.97;;;;;;;-145.69;100.00;72837.34;5092853;28;20206;-78
2022/02/24 03:35:37;;;;;;;14.73;6.47;;;;;;;-145.69;100.00;72809.47;5092684;28;20198;-78
2022/02/24 03:38:03;;;;;;;11.53;5.63;;;;;;;-145.69;100.00;72809.47;5092891;28;20217;-78
2022/02/24 03:40:30;;;;;;;14.20;5.90;;;;;;;-145.69;100.00;72799.53;5080443;28;20195;-78
2022/02/24 03:42:56;;;;;;;11.43;5.13;;;;;;;-145.69;100.00;72825.41;5072465;28;20229;-78
2022/02/24 03:45:23;;;;;;;13.80;5.13;;;;;;;-145.69;100.00;72835.34;5072273;28;20650;-78
2022/02/24 03:47:51;;;;;;;13.83;5.53;;;;;;;-145.69;100.00;72825.41;5072220;28;20214;-77
2022/02/24 03:50:17;;;;;;;14.50;5.10;;;;;;;-145.69;100.00;72831.38;5072347;28;20199;-77
2022/02/24 03:52:44;;;;;;;12.10;4.77;;;;;;;-145.69;100.00;72847.28;5072812;28;20568;-76
2022/02/24 03:55:11;;;;;;;11.10;5.30;;;;;;;-145.69;100.00;72835.34;5076160;28;20290;-78
2022/02/24 03:57:38;;;;;;;13.87;5.67;;;;;;;-145.69;100.00;72817.44;5076075;28;20240;-77
2022/02/24 04:00:07;;;;;;;19.00;6.33;;;;;;;-145.69;100.00;72813.47;5075982;28;20198;-76
2022/02/24 04:02:34;;;;;;;13.00;5.83;;;;;;;-145.69;100.00;72775.63;5075803;28;20225;-77
2022/02/24 04:05:02;;;;;;;14.00;5.53;;;;;;;-145.69;100.00;72799.53;5074798;28;20198;-76
2022/02/24 04:07:28;;;;;;;14.93;6.17;;;;;;;-145.69;100.00;72787.56;5094614;28;20225;-77
2022/02/24 04:09:55;;;;;;;12.90;5.40;;;;;;;-145.69;100.00;72783.59;5095963;28;20202;-77
2022/02/24 04:12:21;;;;;;;13.17;5.10;;;;;;;-145.69;100.00;72785.59;5096139;28;20244;-77
2022/02/24 04:14:48;;;;;;;12.93;5.10;;;;;;;-145.69;100.00;72775.63;5095975;28;20197;-77
2022/02/24 04:17:15;;;;;;;11.57;4.80;;;;;;;-145.69;100.00;72763.69;5095908;28;20206;-77
2022/02/24 04:19:41;;;;;;;13.57;4.67;;;;;;;-145.69;100.00;72775.63;5094687;28;20564;-77
2022/02/24 04:22:10;;;;;;;12.43;5.40;;;;;;;-145.69;100.00;72749.75;5095918;28;20222;-77
2022/02/24 04:24:37;;;;;;;13.37;5.20;;;;;;;-145.69;100.00;72749.75;5095758;28;20201;-77
2022/02/24 04:27:04;;;;;;;11.13;4.73;;;;;;;-145.69;100.00;72739.81;5095639;28;20676;-77
2022/02/24 04:29:30;;;;;;;16.93;6.03;;;;;;;-145.69;100.00;72751.75;5095478;28;20660;-78
2022/02/24 04:31:56;;;;;;;14.10;6.07;;;;;;;-145.69;100.00;72735.81;5082568;28;20217;-77
2022/02/24 04:34:26;;;;;;;13.73;5.70;;;;;;;-145.69;100.00;72733.84;5075345;28;20206;-77
2022/02/24 04:36:53;;;;;;;13.38;5.43;;;;;;;-145.69;100.00;72741.78;5074072;28;20449;-78
2022/02/24 04:39:21;;;;;;;13.13;5.30;;;;;;;-145.69;100.00;72743.78;5075213;28;20290;-77
2022/02/24 04:41:47;;;;;;;11.60;4.27;;;;;;;-145.69;100.00;72749.75;5075085;28;20210;-78
2022/02/24 04:44:14;;;;;;;15.43;3.90;;;;;;;-145.69;100.00;72741.78;5074519;28;20202;-79
2022/02/24 04:46:40;;;;;;;7.97;3.60;;;;;;;-145.69;100.00;72723.88;5074985;28;20202;-77
2022/02/24 04:49:06;;;;;;;9.37;4.30;;;;;;;-145.69;100.00;72735.81;5075191;28;20194;-78
2022/02/24 04:51:33;;;;;;;8.23;3.27;;;;;;;-145.69;100.00;72725.88;5074998;28;20198;-77
2022/02/24 04:53:59;;;;;;;6.00;2.83;;;;;;;-145.69;100.00;72731.84;5074825;28;20203;-78
2022/02/24 04:56:27;;;;;;;8.80;3.40;;;;;;;-145.69;100.00;72725.88;5081023;28;20545;-78
2022/02/24 04:58:54;;;;;;;10.23;3.70;;;;;;;-145.69;100.00;72731.84;5095005;28;20206;-78
2022/02/24 05:01:20;;;;;;;9.97;3.03;;;;;;;-145.69;100.00;72739.81;5094925;28;20568;-77
2022/02/24 05:03:46;;;;;;;8.50;3.17;;;;;;;-145.69;100.00;72747.78;5094990;28;20230;-78
2022/02/24 05:06:13;;;;;;;6.40;2.83;;;;;;;-145.69;100.00;72763.69;5093966;28;20710;-77
2022/02/24 05:08:40;;;;;;;5.43;3.20;;;;;;;-145.69;100.00;72755.72;5094702;28;20236;-78
2022/02/24 05:11:06;;;;;;;6.17;3.10;;;;;;;-145.69;100.00;72751.75;5094906;28;20247;-77
2022/02/24 05:13:34;;;;;;;7.67;3.17;;;;;;;-145.69;100.00;72759.72;5094723;28;20209;-78
2022/02/24 05:16:00;;;;;;;7.20;3.60;;;;;;;-145.69;100.00;72745.78;5092584;28;20198;-78
2022/02/24 05:18:27;;;;;;;8.03;3.63;;;;;;;-145.69;100.00;72739.81;5094640;28;20194;-77
2022/02/24 05:20:53;;;;;;;8.57;4.00;;;;;;;-145.69;100.00;72719.91;5094616;28;20248;-77
2022/02/24 05:23:20;;;;;;;10.77;3.97;;;;;;;-145.69;100.00;72709.94;5094308;28;20229;-78
2022/02/24 05:25:46;;;;;;;14.13;3.57;;;;;;;-145.69;100.00;72727.88;5093573;28;20198;-78
2022/02/24 05:28:13;;;;;;;8.73;3.70;;;;;;;-145.69;100.00;72727.88;5094362;28;20206;-78
2022/02/24 05:30:41;;;;;;;11.50;4.20;;;;;;;-145.69;100.00;72727.88;5094269;28;20653;-77
2022/02/24 05:33:09;;;;;;;11.50;4.60;;;;;;;-145.69;100.00;72705.97;5094429;28;20194;-77
2022/02/24 05:35:36;;;;;;;7.90;3.87;;;;;;;-145.69;100.00;72709.94;5094268;28;20202;-77
2022/02/24 05:38:02;;;;;;;8.27;4.13;;;;;;;-145.69;100.00;72721.88;5092890;28;20202;-77
2022/02/24 05:40:29;;;;;;;9.07;4.00;;;;;;;-145.69;100.00;72715.91;5073934;28;20198;-77
2022/02/24 05:42:57;;;;;;;7.90;3.87;;;;;;;-145.69;100.00;72700.00;5073749;28;20317;-78
2022/02/24 05:45:24;;;;;;;10.10;3.77;;;;;;;-145.69;100.00;72723.88;5073725;28;20564;-78
2022/02/24 05:47:52;;;;;;;11.73;4.07;;;;;;;-145.69;100.00;72719.91;5073952;28;20211;-77
2022/02/24 05:50:18;;;;;;;10.13;3.43;;;;;;;-145.69;100.00;72739.81;5073631;28;20205;-78
2022/02/24 05:52:45;;;;;;;10.07;3.20;;;;;;;-145.69;100.00;72731.84;5073929;28;20211;-77
2022/02/24 05:55:12;;;;;;;8.40;3.00;;;;;;;-145.69;100.00;72721.88;5073589;28;20286;-77
2022/02/24 05:57:38;;;;;;;7.63;3.30;;;;;;;-145.69;100.00;72696.00;5073629;28;20203;-78
2022/02/24 06:00:06;;;;;;;8.37;2.70;;;;;;;-145.69;100.00;72694.03;5073781;28;20608;-77
2022/02/24 06:02:33;;;;;;;5.03;2.83;;;;;;;-145.69;100.00;72698.00;5073486;28;20700;-77
2022/02/24 06:05:00;;;;;;;5.83;3.00;;;;;;;-145.69;100.00;72703.97;5073674;28;20191;-77
2022/02/24 06:07:27;;;;;;;5.80;2.57;;;;;;;-145.69;100.00;72729.84;5073264;28;20226;-77
2022/02/24 06:09:53;;;;;;;5.17;2.80;;;;;;;-145.69;100.00;72715.91;5073276;28;20707;-77
2022/02/24 06:12:20;;;;;;;7.03;2.83;;;;;;;-145.69;100.00;72701.97;5073550;28;20260;-77
2022/02/24 06:14:46;;;;;;;5.03;2.87;;;;;;;-145.69;100.00;72723.88;5073398;28;20199;-77
2022/02/24 06:17:13;;;;;;;7.13;2.63;;;;;;;-145.69;100.00;72725.88;5073278;28;20206;-77
2022/02/24 06:19:42;;;;;;;7.50;2.10;;;;;;;-145.69;100.00;72711.94;5073225;28;20225;-77
2022/02/24 06:22:10;;;;;;;4.47;2.30;;;;;;;-145.69;100.00;72719.91;5073183;28;20219;-77
2022/02/24 06:24:36;;;;;;;3.13;1.90;;;;;;;-145.69;100.00;72731.84;5073277;28;20234;-77
2022/02/24 06:27:03;;;;;;;4.77;2.07;;;;;;;-145.69;100.00;72737.81;5073394;28;20213;-77
2022/02/24 06:29:30;;;;;;;6.97;2.13;;;;;;;-145.69;100.00;72727.88;5075418;28;20665;-77
2022/02/24 06:31:56;;;;;;;7.87;3.50;;;;;;;-145.69;100.00;72719.91;5093222;28;20653;-77
2022/02/24 06:34:23;;;;;;;9.00;2.90;;;;;;;-145.69;100.00;72721.88;5093463;28;20209;-77
2022/02/24 06:36:49;;;;;;;5.40;2.07;;;;;;;-145.69;100.00;72707.97;5091195;28;20202;-77
2022/02/24 06:39:17;;;;;;;6.70;2.33;;;;;;;-145.69;100.00;72703.97;5073658;28;20203;-78
2022/02/24 06:41:44;;;;;;;5.80;2.70;;;;;;;-145.69;100.00;72696.00;5074505;28;20286;-78
2022/02/24 06:44:10;;;;;;;4.73;2.57;;;;;;;-145.69;100.00;72684.06;5072944;28;20226;-78
2022/02/24 06:46:37;;;;;;;6.37;2.67;;;;;;;-145.69;100.00;72678.09;5073064;28;20257;-78
2022/02/24 06:49:03;;;;;;;5.63;2.73;;;;;;;-145.69;100.00;72668.16;5071469;28;20692;-77
2022/02/24 06:51:30;;;;;;;5.73;2.87;;;;;;;-145.69;100.00;72680.09;5072847;28;20198;-76
2022/02/24 06:53:57;;;;;;;5.13;2.30;;;;;;;-145.69;100.00;72668.16;5072965;28;20194;-77
2022/02/24 06:56:26;;;;;;;4.60;2.63;;;;;;;-145.69;100.00;72664.16;5089178;28;20201;-78
2022/02/24 06:58:53;;;;;;;3.97;1.97;;;;;;;-145.69;100.00;72664.16;5093171;28;20198;-77
2022/02/24 07:01:20;;;;;;;6.65;1.90;;;;;;;-145.69;100.00;72648.25;5092732;28;20429;-77
2022/02/24 07:03:46;;;;;;;3.17;1.53;;;;;;;-145.69;100.00;72632.31;5093078;28;20226;-77
2022/02/24 07:06:14;;;;;;;7.37;1.80;;;;;;;-145.69;100.00;72608.44;5092428;28;20244;-79
2022/02/24 07:08:41;;;;;;;4.30;1.60;;;;;;;-145.69;100.00;72600.47;5092773;28;20747;-81
2022/02/24 07:11:07;;;;;;;4.00;1.50;;;;;;;-145.69;100.00;72596.50;5092915;28;20569;-80
2022/02/24 07:13:35;;;;;;;2.80;1.50;;;;;;;-145.69;100.00;72588.53;5093030;28;20198;-80
2022/02/24 07:16:02;;;;;;;2.47;1.30;;;;;;;-145.69;100.00;72580.56;5093044;28;20202;-80
2022/02/24 07:18:28;;;;;;;3.63;1.40;;;;;;;-145.69;100.00;72582.56;5092841;28;20323;-80
2022/02/24 07:20:55;;;;;;;8.40;1.57;;;;;;;-145.69;100.00;72576.59;5086267;28;20198;-80
2022/02/24 07:23:24;;;;;;;3.60;1.57;;;;;;;-145.69;100.00;72548.72;5072754;28;20319;-80
2022/02/24 07:25:51;;;;;;;2.07;1.43;;;;;;;-145.69;100.00;72556.69;5072677;28;20199;-80
2022/02/24 07:28:18;;;;;;;3.23;1.27;;;;;;;-145.69;100.00;72546.72;5073765;28;20240;-80
2022/02/24 07:30:46;;;;;;;3.90;1.47;;;;;;;-145.69;100.00;72520.84;5076439;28;20218;-80
2022/02/24 07:33:12;;;;;;;3.77;1.63;;;;;;;-145.69;100.00;72510.91;5076305;28;20199;-80
2022/02/24 07:35:39;;;;;;;4.27;1.60;;;;;;;-145.69;100.00;72494.97;5076562;28;20207;-80
2022/02/24 07:38:06;;;;;;;3.50;1.40;;;;;;;-145.69;100.00;72489.00;5076400;28;20199;-80
2022/02/24 07:40:32;;;;;;;3.30;1.50;;;;;;;-145.69;100.00;72469.09;5076081;28;20213;-80
2022/02/24 07:42:59;;;;;;;4.90;1.60;;;;;;;-145.69;100.00;72461.13;5076238;28;20195;-80
2022/02/24 07:45:25;;;;;;;7.77;1.97;;;;;;;-145.69;100.00;72449.19;5076411;28;20205;-80
2022/02/24 07:47:54;;;;;;;5.10;1.60;;;;;;;-145.69;100.00;72445.22;5096677;28;20209;-81
2022/02/24 07:50:20;;;;;;;3.93;1.50;;;;;;;-145.69;100.00;72425.31;5096702;28;20205;-79
2022/02/24 07:52:48;;;;;;;7.73;1.43;;;;;;;-145.69;100.00;72413.38;5096217;28;20285;-80
2022/02/24 07:55:15;;;;;;;3.80;1.60;;;;;;;-145.69;100.00;72365.59;5096764;28;20281;-80
2022/02/24 07:57:43;;;;;;;3.60;1.13;;;;;;;-145.69;100.00;72347.69;5091449;28;20208;-80
2022/02/24 08:00:13;;;;;;;3.37;1.67;;;;;;;-145.69;100.00;72337.75;5093409;28;20240;-80
2022/02/24 08:02:40;;;;;;;2.50;1.53;;;;;;;-145.69;100.00;72317.84;5095664;28;20202;-80
2022/02/24 08:05:09;;;;;;;4.20;1.40;;;;;;;-145.69;100.00;72297.94;5096212;28;20222;-80
2022/02/24 08:07:36;;;;;;;3.07;1.60;;;;;;;-145.69;100.00;72282.00;5095856;28;20237;-80
2022/02/24 08:10:03;;;;;;;3.63;1.70;;;;;;;-145.69;100.00;72268.06;5096462;28;20572;-80
2022/02/24 08:12:42;;;;;;;3.73;1.53;;;;;;;-145.69;100.00;72244.19;5082717;28;20199;-79
2022/02/24 08:15:11;;;;;;;4.70;2.03;;;;;;;-145.69;100.00;72222.31;5076200;28;20294;-78
2022/02/24 08:17:37;;;;;;;4.60;2.00;;;;;;;-145.69;100.00;72186.47;5076087;28;20202;-79
2022/02/24 08:20:07;;;;;;;4.70;1.87;;;;;;;-145.69;100.00;72140.69;5075873;28;20572;-79
2022/02/24 08:22:35;;;;;;;5.77;1.50;;;;;;;-145.69;100.00;72118.81;5075690;28;20272;-79
2022/02/24 08:25:03;;;;;;;3.77;1.30;;;;;;;-145.69;96.43;72082.97;5075286;28;20237;-79
2022/02/24 08:27:29;;;;;;;3.03;1.27;;;;;;;-145.69;95.70;72059.09;5075914;28;20203;-79
2022/02/24 08:29:57;;;;;;;4.57;1.60;;;;;;;-145.69;88.84;72035.22;5075503;28;20203;-80
2022/02/24 08:32:24;;;;;;;3.77;1.50;;;;;;;-145.69;88.71;71977.50;5075521;28;20700;-79
2022/02/24 08:34:51;;;;;;;4.63;1.73;;;;;;;-145.69;86.75;71975.50;5075563;28;20202;-79
2022/02/24 08:37:17;;;;;;;3.70;1.53;;;;;;;-145.69;89.58;71955.63;5074651;28;20308;-79
2022/02/24 08:39:45;;;;;;;3.17;1.50;;;;;;;-145.69;93.60;71943.69;5074581;28;20199;-80
2022/02/24 08:42:12;;;;;;;2.77;1.33;;;;;;;-145.69;80.28;71923.78;5075169;28;20202;-80
2022/02/24 08:44:39;;;;;;;3.00;1.27;;;;;;;-145.69;83.86;71903.88;5075032;28;20226;-79
2022/02/24 08:47:06;;;;;;;4.57;1.30;;;;;;;-145.69;77.51;71899.88;5075053;28;20198;-79
2022/02/24 08:49:32;;;;;;;5.53;1.40;;;;;;;-145.69;81.99;71899.88;5075054;28;20203;-79
2022/02/24 08:51:59;;;;;;;6.93;1.70;;;;;;;-145.69;81.40;71891.94;5075212;28;20194;-78
2022/02/24 08:54:25;;;;;;;6.37;1.50;;;;;;;-145.69;79.66;71872.03;5074796;28;20232;-79
2022/02/24 08:56:53;;;;;;;3.73;1.40;;;;;;;-145.69;88.67;71848.16;5075396;28;20203;-78
2022/02/24 08:59:19;;;;;;;5.13;1.20;;;;;;;-145.69;77.10;71830.25;5074955;28;20210;-78
2022/02/24 09:01:46;;;;;;;3.93;1.50;;;;;;;-145.69;78.09;71808.34;5075999;28;20665;-78
2022/02/24 09:04:14;;;;;;;7.00;1.90;;;;;;;-145.69;75.94;71774.50;5074709;28;20628;-78
2022/02/24 09:06:40;;;;;;;6.10;1.60;;;;;;;-145.69;76.94;71740.69;5074701;28;20608;-80
2022/02/24 09:09:07;;;;;;;3.80;1.57;;;;;;;-145.69;74.96;71696.91;5074548;28;20226;-79
2022/02/24 09:11:33;;;;;;;4.20;1.50;;;;;;;-145.69;73.55;71675.00;5074952;28;20214;-79
2022/02/24 09:14:01;;;;;;;4.10;1.40;;;;;;;-145.69;72.24;71665.06;5074777;28;20202;-79
2022/02/24 09:16:28;;;;;;;4.77;1.43;;;;;;;-145.69;72.59;71655.13;5074617;28;20201;-79
2022/02/24 09:18:54;;;;;;;5.90;2.03;;;;;;;-145.69;71.56;71698.91;5074081;28;20209;-78
2022/02/24 09:21:21;;;;;;;5.13;1.40;;;;;;;-145.69;72.87;71700.88;5074478;28;20233;-79
2022/02/24 09:23:48;;;;;;;3.40;1.70;;;;;;;-145.69;70.80;71708.84;5078100;28;20214;-79
2022/02/24 09:26:14;;;;;;;2.83;1.13;;;;;;;-145.69;69.49;71718.78;5093924;28;20911;-79
2022/02/24 09:28:41;;;;;;;2.03;1.20;;;;;;;-145.69;75.52;71694.91;5094442;28;20204;-79
2022/02/24 09:31:09;;;;;;;4.50;1.20;;;;;;;-145.69;70.26;71673.03;5094506;28;20256;-79
2022/02/24 09:33:36;;;;;;;8.30;1.70;;;;;;;-145.69;71.64;71675.00;5094470;28;20662;-78
2022/02/24 09:36:04;;;;;;;1.83;1.20;;;;;;;-145.69;68.63;71645.16;5094302;28;20202;-78
2022/02/24 09:38:30;;;;;;;6.17;1.50;;;;;;;-145.69;68.66;71641.19;5082198;28;20194;-79
2022/02/24 09:40:57;;;;;;;2.00;1.13;;;;;;;-145.69;66.82;71633.22;5094318;28;20198;-78
2022/02/24 09:43:27;;;;;;;7.93;1.60;;;;;;;-145.69;67.13;71621.28;5094214;28;20233;-79
2022/02/24 09:45:58;;;;;;;7.13;1.10;;;;;;;-145.69;66.95;71647.16;5094165;28;20198;-79
2022/02/24 09:48:29;;;;;;;3.40;1.13;;;;;;;-145.69;67.70;71673.03;5094516;28;20534;-79
2022/02/24 09:50:56;;;;;;;4.60;1.40;;;;;;;-145.69;66.22;71653.13;5094066;28;20187;-78
2022/02/24 09:53:23;;;;;;;3.37;1.43;;;;;;;-145.69;66.14;71671.03;5094150;28;20205;-78
2022/02/24 09:55:50;;;;;;;3.37;0.97;;;;;;;-145.69;65.70;71690.94;5094323;28;20229;-78
2022/02/24 09:58:17;;;;;;;4.53;1.13;;;;;;;-145.69;65.11;71686.97;5094353;28;20206;-77
2022/02/24 10:00:43;;;;;;;4.90;0.90;;;;;;;-145.69;67.35;71680.97;5093952;28;20595;-78
2022/02/24 10:03:29;;;;;;;4.80;1.50;;;;;;;-145.69;64.69;71673.03;5079746;28;20252;-78
2022/02/24 10:05:56;;;;;;;4.93;0.97;;;;;;;-145.69;63.73;71665.06;5073787;28;20202;-78
2022/02/24 10:08:27;;;;;;;3.80;1.00;;;;;;;-145.69;64.32;71653.13;5073663;28;20329;-77
2022/02/24 10:10:54;;;;;;;2.83;0.90;;;;;;;-145.69;62.14;71639.19;5074055;28;20234;-78
2022/02/24 10:13:20;;;;;;;2.77;1.10;;;;;;;-145.69;60.22;71637.19;5073616;28;20206;-77
2022/02/24 10:15:55;;;;;;;2.40;1.13;;;;;;;-145.69;58.52;71629.25;5073591;28;20554;-78
2022/02/24 10:18:24;;;;;;;5.87;1.23;;;;;;;-145.69;62.83;71621.28;5073251;28;20198;-77
2022/02/24 10:20:55;;;;;;;3.60;1.10;;;;;;;-145.69;58.38;71629.25;5073557;28;20662;-76
2022/02/24 10:23:30;;;;;;;3.30;1.13;;;;;;;-145.69;59.79;71611.34;5073492;28;20662;-77
2022/02/24 10:26:01;;;;;;;2.43;1.20;;;;;;;-145.69;58.93;71585.47;5073248;28;20711;-78
2022/02/24 10:28:30;;;;;;;2.90;1.00;;;;;;;-145.69;58.46;71591.44;5085303;28;20199;-78
2022/02/24 10:30:57;;;;;;;1.53;0.93;;;;;;;-145.69;58.81;71581.50;5093793;28;20277;-77
2022/02/24 10:33:28;;;;;;;3.63;1.20;;;;;;;-145.69;55.92;71567.56;5093394;28;20657;-78
2022/02/24 10:35:57;;;;;;;1.90;1.13;;;;;;;-145.69;56.64;71557.59;5080981;28;20206;-77
2022/02/24 10:38:30;;;;;;;3.17;1.10;;;;;;;-145.69;54.62;71549.66;5073486;28;20234;-77
2022/02/24 10:40:57;;;;;;;2.73;1.23;;;;;;;-145.69;54.47;71539.69;5073220;28;20195;-77
2022/02/24 10:43:26;;;;;;;3.83;1.10;;;;;;;-145.69;56.27;71493.94;5073467;28;20203;-77
2022/02/24 10:46:00;;;;;;;3.70;1.00;;;;;;;-145.69;52.52;71513.81;5073378;28;20233;-78
2022/02/24 10:48:27;;;;;;;4.20;1.00;;;;;;;-145.69;50.87;71507.84;5073165;28;20207;-77
2022/02/24 10:50:57;;;;;;;5.60;1.10;;;;;;;-145.69;47.53;71482.00;5073122;28;20213;-77
2022/02/24 10:53:28;;;;;;;2.60;1.20;;;;;;;-145.69;48.58;71487.97;5078777;28;20198;-78
2022/02/24 10:56:06;;;;;;;3.70;1.10;;;;;;;-145.69;49.31;71472.03;5093384;28;20198;-77
2022/02/24 10:58:35;;;;;;;2.13;0.80;;;;;;;-145.69;48.44;71450.16;5093130;28;20292;-77
2022/02/24 11:01:10;;;;;;;3.37;1.20;;;;;;;-145.69;46.34;71442.19;5093176;28;20198;-78
2022/02/24 11:03:38;;;;;;;2.00;0.70;;;;;;;-145.69;46.44;71434.22;5094977;28;20197;-77
2022/02/24 11:06:08;;;;;;;1.57;0.80;;;;;;;-145.69;45.41;71452.16;5097691;28;20232;-77
2022/02/24 11:08:36;;;;;;;2.47;1.30;;;;;;;-145.69;48.55;71440.19;5097218;28;20225;-78
2022/02/24 11:11:04;;;;;;;6.43;1.70;;;;;;;-145.69;46.13;71410.34;5097431;28;20205;-78